Aeroporto :







RITROVATECI SU...

 
LOGIN :

Iscrizione | Disclaimer

   EN    FR    IT 

 









Sommario :    VFR   VFR Marginale   IFR   IFR Intensivo   IFR Molto Intensivo
Visibilità : 
Base nubi : 
>= 8 km
>= 3000ft
5 / 8 km
1000 / 3000 ft
1500m / 5 km
500 / 1000 ft
800 / 1500m
200 / 500 ft
< 800m
< 200 ft
Simboli :   Temporali  Nebbia  Neve Forte  Precipitazioni Forti  Vento > 20 kt






- Altitudine del aeroporto : 27 ft
- Codice IATA : FSP


LFVP - St Pierre et Miquelon

ULTIMO METAR :
  • 182200Z 30006KT CAVOK M07/M13 Q1034 NOSIG

METARs OBSOLETI :
  • 182100Z 30007KT 270V330 CAVOK M06/M12 Q1034 NOSIG
  • 182000Z 30008KT 270V330 CAVOK M05/M11 Q1032 NOSIG

TAF TAF LFVP
Valido dal 18 a 18 ore il 19 a 03 ore UTC


181700Z 1818/1903 32015KT CAVOK
BECMG 1819/1821 34010KT
BECMG 1822/1824 26008KT
BECMG 1901/1903 20005KT 9999 FEW025 SCT110 OVC230



MetMap, La meteo Aeronautica in un colpo d'occhio ! - Copyright ORBIFLY Dicembre 2007 - Disclaimer

ORBIFLY MET'MAP TEAM :

Programmazione e sviluppo : Alexandra Zaïnal
Concezione : Baudouin d'Aumeries
Aiuto per la programmazione : Marc-Olivier Méhu
Supporto tecnico e logistico : Manuel Goepfert
Aiuto per la traduzione : Arnaldo La Scala

Contatto : metmap@orbifly.com




FONTI E CREDITI :

   NOAA